createdAt,value
2019-06-10T00:00:31.259Z,25.27
2019-06-10T00:05:34.693Z,25.26
2019-06-10T00:10:38.155Z,25.25
2019-06-10T00:15:41.635Z,25.23
2019-06-10T00:20:45.259Z,25.19
2019-06-10T00:25:51.403Z,25.21
2019-06-10T00:30:53.908Z,25.19
2019-06-10T00:35:57.369Z,25.16
2019-06-10T00:41:03.929Z,25.05
2019-06-10T00:46:07.458Z,25.06
2019-06-10T00:51:13.093Z,25.06
2019-06-10T00:56:16.495Z,25.05
2019-06-10T01:01:21.955Z,25.02
2019-06-10T01:06:25.146Z,25.00
2019-06-10T01:11:30.869Z,25.00
2019-06-10T01:16:33.823Z,24.98
2019-06-10T01:21:37.337Z,24.99
2019-06-10T01:26:41.238Z,24.97
2019-06-10T01:31:44.849Z,24.99
2019-06-10T01:36:50.782Z,24.99
2019-06-10T01:41:54.361Z,25.00
2019-06-10T01:46:57.825Z,24.99
2019-06-10T01:52:01.782Z,24.98
2019-06-10T01:57:05.231Z,24.97
2019-06-10T02:02:16.157Z,24.97
2019-06-10T02:07:19.986Z,24.96
2019-06-10T02:12:24.290Z,24.97
2019-06-10T02:17:27.789Z,24.96
2019-06-10T02:22:31.825Z,24.93
2019-06-10T02:27:35.416Z,24.95
2019-06-10T02:32:38.887Z,24.94
2019-06-10T02:37:44.508Z,24.94
2019-06-10T02:42:49.209Z,24.93
2019-06-10T02:47:53.447Z,24.91
2019-06-10T02:52:56.917Z,24.93
2019-06-10T02:58:03.943Z,24.92
2019-06-10T03:03:07.146Z,24.91
2019-06-10T03:08:13.146Z,24.90
2019-06-10T03:13:15.794Z,24.88
2019-06-10T03:18:19.902Z,24.89
2019-06-10T03:23:26.422Z,24.90
2019-06-10T03:28:28.590Z,24.89
2019-06-10T03:33:40.871Z,24.85
2019-06-10T03:38:37.281Z,24.86
2019-06-10T03:43:42.953Z,24.85
2019-06-10T03:48:46.084Z,24.85
2019-06-10T03:53:49.545Z,24.86
2019-06-10T03:58:53.008Z,24.86
2019-06-10T04:03:56.549Z,24.86
2019-06-10T04:09:00.009Z,24.85
2019-06-10T04:14:03.473Z,24.79
2019-06-10T04:19:06.929Z,24.82
2019-06-10T04:24:12.669Z,24.82
2019-06-10T04:29:15.582Z,24.82
2019-06-10T04:34:20.394Z,24.80
2019-06-10T04:39:26.046Z,24.82
2019-06-10T04:44:29.510Z,24.84
2019-06-10T04:49:32.994Z,24.83
2019-06-10T04:54:36.441Z,24.86
2019-06-10T04:59:39.907Z,24.86
2019-06-10T05:04:44.244Z,24.87
2019-06-10T05:09:47.706Z,24.90
2019-06-10T05:14:52.673Z,24.92
2019-06-10T05:19:56.305Z,24.94
2019-06-10T05:25:02.273Z,24.95
2019-06-10T05:30:07.500Z,24.96
2019-06-10T05:35:12.368Z,24.97
2019-06-10T05:40:15.973Z,24.99
2019-06-10T05:45:19.436Z,25.01
2019-06-10T05:50:24.059Z,25.02
2019-06-10T05:55:29.077Z,25.02
2019-06-10T06:00:35.311Z,25.05
2019-06-10T06:05:38.144Z,25.07
2019-06-10T06:10:42.426Z,25.09
2019-06-10T06:15:45.940Z,25.12
2019-06-10T06:20:49.405Z,25.14
2019-06-10T06:25:53.298Z,25.16
2019-06-10T06:30:56.813Z,25.17
2019-06-10T06:36:03.153Z,25.18
2019-06-10T06:41:05.710Z,25.20
2019-06-10T06:46:09.183Z,25.21
2019-06-10T06:51:12.939Z,25.24
2019-06-10T06:56:16.795Z,25.25
2019-06-10T07:01:23.239Z,25.25
2019-06-10T07:06:26.128Z,25.28
2019-06-10T07:11:33.962Z,25.27
2019-06-10T07:16:39.177Z,25.25
2019-06-10T07:22:02.304Z,25.26
2019-06-10T07:26:53.951Z,25.27
2019-06-10T07:31:53.830Z,25.28
2019-06-10T07:36:57.345Z,25.28
2019-06-10T07:42:03.029Z,25.31
2019-06-10T07:47:05.985Z,25.31
2019-06-10T07:52:15.873Z,25.32
2019-06-10T07:57:14.626Z,25.35
2019-06-10T08:02:18.093Z,25.38
2019-06-10T08:07:22.509Z,25.38
2019-06-10T08:12:26.092Z,25.40
2019-06-10T08:17:29.548Z,25.42
2019-06-10T08:22:37.277Z,25.45
2019-06-10T08:27:38.546Z,25.42
2019-06-10T08:32:45.294Z,25.58
2019-06-10T08:37:47.470Z,25.58
2019-06-10T08:42:53.552Z,25.63
2019-06-10T08:47:56.132Z,25.71
2019-06-10T08:53:13.281Z,25.71
2019-06-10T08:58:05.508Z,25.77
2019-06-10T09:03:09.209Z,25.80
2019-06-10T09:08:13.034Z,25.84
2019-06-10T09:13:16.731Z,25.87
2019-06-10T09:18:23.185Z,25.91
2019-06-10T09:23:25.932Z,25.97
2019-06-10T09:28:29.449Z,26.00
2019-06-10T09:33:33.288Z,26.03
2019-06-10T09:38:36.894Z,26.06
2019-06-10T09:43:45.390Z,26.09
2019-06-10T09:48:50.348Z,26.10
2019-06-10T09:54:02.349Z,26.12
2019-06-10T09:58:58.048Z,26.15
2019-06-10T10:04:01.538Z,26.09
2019-06-10T10:09:06.848Z,26.19
2019-06-10T10:14:15.285Z,26.17
2019-06-10T10:19:15.595Z,26.12
2019-06-10T10:24:19.157Z,26.17
2019-06-10T10:29:22.884Z,26.21
2019-06-10T10:34:26.522Z,26.24
2019-06-10T10:39:32.582Z,26.27
2019-06-10T10:44:35.235Z,26.29
2019-06-10T10:49:38.713Z,26.32
2019-06-10T10:54:43.195Z,26.33
2019-06-10T10:59:47.811Z,26.34
2019-06-10T11:04:55.145Z,26.39
2019-06-10T11:09:56.979Z,26.42
2019-06-10T11:15:02.908Z,26.46
2019-06-10T11:20:07.395Z,26.46
2019-06-10T11:25:12.585Z,26.52
2019-06-10T11:30:16.276Z,26.55
2019-06-10T11:35:19.895Z,26.53
2019-06-10T11:40:24.281Z,26.59
2019-06-10T11:45:28.005Z,26.58
2019-06-10T11:50:33.438Z,26.63
2019-06-10T11:55:37.042Z,26.64
2019-06-10T12:00:42.643Z,26.66
2019-06-10T12:05:45.837Z,26.67
2019-06-10T12:10:49.323Z,26.70
2019-06-10T12:16:32.721Z,26.71
2019-06-10T12:21:00.452Z,26.74
2019-06-10T12:26:04.742Z,26.73
2019-06-10T12:31:08.683Z,26.73
2019-06-10T12:36:12.984Z,26.71
2019-06-10T12:41:16.995Z,26.70
2019-06-10T12:46:22.640Z,26.68
2019-06-10T12:51:26.548Z,26.71
2019-06-10T12:56:32.623Z,26.72
2019-06-10T13:01:35.411Z,26.74
2019-06-10T13:06:40.412Z,26.74
2019-06-10T13:11:43.892Z,26.77
2019-06-10T13:16:47.354Z,26.77
2019-06-10T13:53:34.133Z,26.93
2019-06-10T13:58:37.608Z,26.94
2019-06-10T14:03:43.278Z,26.94
2019-06-10T14:08:46.284Z,26.96
2019-06-10T14:13:49.757Z,26.98
2019-06-10T14:18:54.191Z,26.98
2019-06-10T14:23:57.969Z,27.02
2019-06-10T14:29:03.025Z,27.02
2019-06-10T14:39:23.254Z,27.03
2019-06-10T14:44:26.759Z,27.03
2019-06-10T14:49:30.231Z,27.05
2019-06-10T14:54:35.487Z,27.09
2019-06-10T14:59:38.962Z,27.11
2019-06-10T15:04:42.650Z,27.12
2019-06-10T15:09:46.168Z,27.13
2019-06-10T15:14:52.014Z,27.13
2019-06-10T15:51:52.672Z,27.12
2019-06-10T15:56:56.768Z,27.11
2019-06-10T16:02:02.389Z,27.17
2019-06-10T16:07:05.641Z,27.18
2019-06-10T16:12:09.095Z,27.17
2019-06-10T16:17:14.070Z,27.17
2019-06-10T16:22:17.732Z,27.17
2019-06-10T16:27:24.430Z,27.16
2019-06-10T16:32:26.642Z,27.15
2019-06-10T16:37:32.795Z,27.12
2019-06-10T16:42:36.344Z,27.11
2019-06-10T16:47:39.800Z,27.09
2019-06-10T16:52:43.293Z,27.08
2019-06-10T16:57:58.589Z,27.07
2019-06-10T17:02:52.931Z,27.05
2019-06-10T17:07:56.782Z,27.03
2019-06-10T17:13:04.617Z,27.04
2019-06-10T17:18:08.072Z,27.02
2019-06-10T17:23:24.657Z,27.00
2019-06-10T17:28:29.748Z,26.99
2019-06-10T17:33:35.252Z,26.98
2019-06-10T17:38:37.016Z,26.96
2019-06-10T17:43:42.756Z,26.96
2019-06-10T17:48:45.735Z,26.94
2019-06-10T17:53:49.214Z,26.93
2019-06-10T17:58:57.761Z,26.92
2019-06-10T18:03:57.856Z,26.91
2019-06-10T18:09:03.851Z,26.91
2019-06-10T18:14:06.737Z,26.90
2019-06-10T18:19:10.203Z,26.88
2019-06-10T18:24:13.663Z,26.89
2019-06-10T18:29:17.114Z,26.85
2019-06-10T18:34:22.673Z,26.86
2019-06-10T18:39:25.765Z,26.85
2019-06-10T18:44:29.761Z,26.84
2019-06-10T18:49:35.811Z,26.84
2019-06-10T18:54:40.042Z,26.85
2019-06-10T18:59:43.510Z,26.86
2019-06-10T19:04:46.967Z,26.88
2019-06-10T19:09:52.725Z,26.93
2019-06-10T19:14:55.625Z,26.93
2019-06-10T19:19:59.076Z,26.94
2019-06-10T19:25:03.640Z,26.94
2019-06-10T19:30:08.384Z,26.94
2019-06-10T19:35:13.130Z,26.92
2019-06-10T19:40:17.769Z,26.87
2019-06-10T19:45:22.861Z,26.87
2019-06-10T19:50:26.396Z,26.84
2019-06-10T19:55:32.023Z,26.85
2019-06-10T20:00:35.903Z,26.85
2019-06-10T20:05:40.063Z,26.83
2019-06-10T20:10:44.514Z,26.81
2019-06-10T20:15:48.357Z,26.79
2019-06-10T20:20:53.999Z,26.77
2019-06-10T20:25:57.089Z,26.75
2019-06-10T20:31:00.551Z,26.73
2019-06-10T20:36:08.031Z,26.72
2019-06-10T20:41:09.569Z,26.71
2019-06-10T20:46:13.278Z,26.68
2019-06-10T20:51:16.778Z,26.64
2019-06-10T20:56:21.078Z,26.65
2019-06-10T21:01:25.792Z,26.64
2019-06-10T21:06:32.678Z,26.62
2019-06-10T21:11:36.296Z,26.62
2019-06-10T21:16:39.964Z,26.60
2019-06-10T21:21:45.651Z,26.58
2019-06-10T21:26:49.750Z,26.58
2019-06-10T21:31:54.796Z,26.55
2019-06-10T21:36:58.511Z,26.54
2019-06-10T21:42:02.404Z,26.55
2019-06-10T21:47:05.907Z,26.52
2019-06-10T21:52:12.941Z,26.51
2019-06-10T21:57:16.088Z,26.50
2019-06-10T22:02:19.617Z,26.49
2019-06-10T22:07:23.078Z,26.49
2019-06-10T22:12:26.544Z,26.48
2019-06-10T22:17:29.998Z,26.47
2019-06-10T22:22:33.451Z,26.47
2019-06-10T22:27:36.912Z,26.47
2019-06-10T22:32:42.790Z,26.44
2019-06-10T22:37:45.660Z,26.44
2019-06-10T22:42:49.321Z,26.43
2019-06-10T22:47:55.253Z,26.43
2019-06-10T22:52:58.024Z,26.42
2019-06-10T22:58:05.290Z,26.40
2019-06-10T23:03:06.820Z,26.39
2019-06-10T23:08:12.419Z,26.36
2019-06-10T23:13:17.004Z,26.35
2019-06-10T23:18:22.434Z,26.36
2019-06-10T23:23:25.793Z,26.35
2019-06-10T23:28:29.249Z,26.33
2019-06-10T23:33:32.879Z,26.32
2019-06-10T23:38:36.341Z,26.32
2019-06-10T23:43:42.180Z,26.31
2019-06-10T23:48:44.971Z,26.29
2019-06-10T23:53:48.429Z,26.27
2019-06-10T23:58:52.819Z,26.28
